createdAt,value
2018-08-22T00:02:28.915Z,6.80
2018-08-22T00:04:59.085Z,6.83
2018-08-22T00:07:29.598Z,7.03
2018-08-22T00:10:00.332Z,6.83
2018-08-22T00:12:32.087Z,7.93
2018-08-22T00:15:03.472Z,7.20
2018-08-22T00:17:35.895Z,7.80
2018-08-22T00:20:07.436Z,7.83
2018-08-22T00:22:38.817Z,7.77
2018-08-22T00:25:10.021Z,7.90
2018-08-22T00:27:40.431Z,7.50
2018-08-22T00:30:11.009Z,7.50
2018-08-22T00:32:41.164Z,8.00
2018-08-22T00:35:11.318Z,8.23
2018-08-22T00:37:41.769Z,8.03
2018-08-22T00:40:11.927Z,8.17
2018-08-22T00:42:42.020Z,7.73
2018-08-22T00:45:12.194Z,7.67
2018-08-22T00:47:42.412Z,7.83
2018-08-22T00:50:12.828Z,8.23
2018-08-22T00:52:43.146Z,7.83
2018-08-22T00:55:13.292Z,6.97
2018-08-22T00:57:43.630Z,7.03
2018-08-22T01:00:14.285Z,7.30
2018-08-22T01:02:44.390Z,6.97
2018-08-22T01:05:16.543Z,7.20
2018-08-22T01:07:46.980Z,6.93
2018-08-22T01:10:17.368Z,7.30
2018-08-22T01:12:47.970Z,7.30
2018-08-22T01:15:18.756Z,7.27
2018-08-22T01:17:48.861Z,7.47
2018-08-22T01:20:19.025Z,7.30
2018-08-22T01:22:49.859Z,7.03
2018-08-22T01:25:20.335Z,7.63
2018-08-22T01:27:50.488Z,7.83
2018-08-22T01:30:21.440Z,7.50
2018-08-22T01:32:51.546Z,7.33
2018-08-22T01:35:22.065Z,7.33
2018-08-22T01:37:52.221Z,7.33
2018-08-22T01:40:22.426Z,7.13
2018-08-22T01:42:52.593Z,7.77
2018-08-22T01:45:22.786Z,7.53
2018-08-22T01:47:53.277Z,7.37
2018-08-22T01:50:23.422Z,7.33
2018-08-22T01:52:53.658Z,6.93
2018-08-22T01:55:24.371Z,7.13
2018-08-22T01:57:54.510Z,7.57
2018-08-22T02:00:24.733Z,7.57
2018-08-22T02:02:55.422Z,7.97
2018-08-22T02:05:25.675Z,7.10
2018-08-22T02:07:55.780Z,7.33
2018-08-22T02:10:25.933Z,7.10
2018-08-22T02:12:56.060Z,7.43
2018-08-22T02:15:26.334Z,7.20
2018-08-22T02:17:56.670Z,6.90
2018-08-22T02:20:27.152Z,7.50
2018-08-22T02:22:57.958Z,7.47
2018-08-22T02:25:28.353Z,7.13
2018-08-22T02:27:58.806Z,7.23
2018-08-22T02:30:32.870Z,6.27
2018-08-22T02:33:03.892Z,6.80
2018-08-22T02:35:35.150Z,6.33
2018-08-22T02:38:05.276Z,6.10
2018-08-22T02:40:35.525Z,7.03
2018-08-22T02:43:05.982Z,6.77
2018-08-22T02:45:36.282Z,7.00
2018-08-22T02:48:07.551Z,6.53
2018-08-22T02:50:37.631Z,6.37
2018-08-22T02:53:08.750Z,6.60
2018-08-22T02:55:40.330Z,5.93
2018-08-22T02:58:10.874Z,6.63
2018-08-22T03:00:41.142Z,6.50
2018-08-22T03:03:12.633Z,6.50
2018-08-22T03:05:42.891Z,6.57
2018-08-22T03:08:13.190Z,6.27
2018-08-22T03:10:43.293Z,5.93
2018-08-22T03:13:13.720Z,6.20
2018-08-22T03:15:44.255Z,6.30
2018-08-22T03:18:14.392Z,6.00
2018-08-22T03:20:44.715Z,6.17
2018-08-22T03:23:14.807Z,6.27
2018-08-22T03:25:44.898Z,6.00
2018-08-22T03:28:15.002Z,5.90
2018-08-22T03:30:45.643Z,6.30
2018-08-22T03:33:15.937Z,6.17
2018-08-22T03:35:46.093Z,6.23
2018-08-22T03:38:16.567Z,6.40
2018-08-22T03:40:46.730Z,5.63
2018-08-22T03:43:16.988Z,6.13
2018-08-22T03:45:47.049Z,6.33
2018-08-22T03:48:17.317Z,5.90
2018-08-22T03:50:47.721Z,6.17
2018-08-22T03:53:17.899Z,6.07
2018-08-22T03:55:48.111Z,5.80
2018-08-22T03:58:18.506Z,6.03
2018-08-22T04:00:49.549Z,5.70
2018-08-22T04:03:19.630Z,6.33
2018-08-22T04:05:50.420Z,6.17
2018-08-22T04:08:20.723Z,7.00
2018-08-22T04:10:51.150Z,5.77
2018-08-22T04:13:21.367Z,5.87
2018-08-22T04:15:51.541Z,5.77
2018-08-22T04:18:22.946Z,5.53
2018-08-22T04:20:53.161Z,5.70
2018-08-22T04:23:23.310Z,5.70
2018-08-22T04:25:54.434Z,5.27
2018-08-22T04:28:24.494Z,6.03
2018-08-22T04:30:54.746Z,5.50
2018-08-22T04:33:26.099Z,5.50
2018-08-22T04:35:56.224Z,6.00
2018-08-22T04:38:26.374Z,6.43
2018-08-22T04:40:58.503Z,6.27
2018-08-22T04:43:29.389Z,5.70
2018-08-22T04:45:59.544Z,5.33
2018-08-22T04:48:31.080Z,6.13
2018-08-22T04:51:01.363Z,5.70
2018-08-22T04:53:31.727Z,5.60
2018-08-22T04:56:03.352Z,6.17
2018-08-22T04:58:33.645Z,5.33
2018-08-22T05:01:22.946Z,5.63
2018-08-22T05:03:55.555Z,5.67
2018-08-22T05:06:26.205Z,6.40
2018-08-22T05:08:57.073Z,5.67
2018-08-22T05:11:29.626Z,5.70
2018-08-22T05:14:00.179Z,5.90
2018-08-22T05:16:30.469Z,5.93
2018-08-22T05:19:00.631Z,5.80
2018-08-22T05:21:31.274Z,5.83
2018-08-22T05:24:01.713Z,5.63
2018-08-22T05:26:32.000Z,5.23
2018-08-22T05:29:02.935Z,5.40
2018-08-22T05:31:34.626Z,6.47
2018-08-22T05:34:05.775Z,5.37
2018-08-22T05:36:36.451Z,5.87
2018-08-22T05:39:10.930Z,6.13
2018-08-22T05:41:41.867Z,5.90
2018-08-22T05:44:12.343Z,5.90
2018-08-22T05:46:42.503Z,5.73
2018-08-22T05:49:14.185Z,5.60
2018-08-22T05:51:45.762Z,5.57
2018-08-22T05:54:16.330Z,6.00
2018-08-22T05:56:47.269Z,5.87
2018-08-22T05:59:17.406Z,5.00
2018-08-22T06:01:47.842Z,4.97
2018-08-22T06:04:18.584Z,5.20
2018-08-22T06:06:49.801Z,5.30
2018-08-22T06:09:22.954Z,5.50
2018-08-22T06:11:54.252Z,5.63
2018-08-22T06:14:25.577Z,5.57
2018-08-22T06:16:57.144Z,5.67
2018-08-22T06:19:27.790Z,5.50
2018-08-22T06:21:58.133Z,5.20
2018-08-22T06:24:28.359Z,5.10
2018-08-22T06:26:59.242Z,5.60
2018-08-22T06:29:31.338Z,5.47
2018-08-22T06:32:03.468Z,6.00
2018-08-22T06:34:35.065Z,5.23
2018-08-22T06:37:08.220Z,5.60
2018-08-22T06:39:38.469Z,5.47
2018-08-22T06:42:09.338Z,5.58
2018-08-22T06:44:39.223Z,4.67
2018-08-22T06:47:09.736Z,5.83
2018-08-22T06:49:40.831Z,5.40
2018-08-22T06:52:15.895Z,6.13
2018-08-22T06:54:47.667Z,6.20
2018-08-22T06:57:25.428Z,5.60
2018-08-22T06:59:57.279Z,5.67
2018-08-22T07:02:28.998Z,5.30
2018-08-22T07:05:00.141Z,5.67
2018-08-22T07:07:31.947Z,5.27
2018-08-22T07:10:04.571Z,5.30
2018-08-22T07:12:37.503Z,4.97
2018-08-22T07:15:17.954Z,5.70
2018-08-22T07:17:53.032Z,5.80
2018-08-22T07:20:25.843Z,6.00
2018-08-22T07:23:07.982Z,5.27
2018-08-22T07:25:46.341Z,5.07
2018-08-22T07:28:18.504Z,5.60
2018-08-22T07:30:50.267Z,5.07
2018-08-22T07:33:20.556Z,5.47
2018-08-22T07:35:51.132Z,4.80
2018-08-22T07:38:21.312Z,5.40
2018-08-22T07:40:52.496Z,5.17
2018-08-22T07:43:54.436Z,5.10
2018-08-22T07:46:28.612Z,4.80
2018-08-22T07:48:58.522Z,4.80
2018-08-22T07:51:30.421Z,4.80
2018-08-22T07:54:04.573Z,4.73
2018-08-22T07:56:38.207Z,4.70
2018-08-22T07:59:22.529Z,5.30
2018-08-22T08:01:52.967Z,4.73
2018-08-22T08:04:27.343Z,5.17
2018-08-22T08:06:58.303Z,4.60
2018-08-22T08:09:29.063Z,4.70
2018-08-22T08:12:03.107Z,5.27
2018-08-22T08:14:33.106Z,4.83
2018-08-22T08:17:03.514Z,5.40
2018-08-22T08:19:34.791Z,5.20
2018-08-22T08:22:06.231Z,5.37
2018-08-22T08:24:36.296Z,5.30
2018-08-22T08:27:08.700Z,5.60
2018-08-22T08:29:41.892Z,5.57
2018-08-22T08:32:11.716Z,5.80
2018-08-22T08:34:44.238Z,5.43
2018-08-22T08:37:18.207Z,5.70
2018-08-22T08:39:49.303Z,5.63
2018-08-22T08:42:19.850Z,5.33
2018-08-22T08:44:51.701Z,5.43
2018-08-22T08:47:22.528Z,5.10
2018-08-22T08:49:54.301Z,5.63
2018-08-22T08:52:24.072Z,5.77
2018-08-22T08:54:54.360Z,5.07
2018-08-22T08:57:25.940Z,5.13
2018-08-22T08:59:56.121Z,5.60
2018-08-22T09:02:26.757Z,5.27
2018-08-22T09:04:57.545Z,5.63
2018-08-22T09:07:30.220Z,5.60
2018-08-22T09:10:00.234Z,6.03
2018-08-22T09:12:32.386Z,5.30
2018-08-22T09:15:08.837Z,5.53
2018-08-22T09:17:39.566Z,5.53
2018-08-22T09:20:10.454Z,5.50
2018-08-22T09:22:40.838Z,5.47
2018-08-22T09:25:11.901Z,6.30
2018-08-22T09:27:44.960Z,5.97
2018-08-22T09:30:15.148Z,5.90
2018-08-22T09:32:45.630Z,6.00
2018-08-22T09:35:18.226Z,5.83
2018-08-22T09:37:49.247Z,5.80
2018-08-22T09:40:20.126Z,5.97
2018-08-22T09:42:50.701Z,6.10
2018-08-22T09:45:33.790Z,7.00
2018-08-22T09:48:17.286Z,7.23
2018-08-22T09:50:55.381Z,6.33
2018-08-22T09:53:30.395Z,6.23
2018-08-22T09:56:03.169Z,5.20
2018-08-22T09:58:36.096Z,5.77
2018-08-22T10:01:14.797Z,5.43
2018-08-22T10:03:59.725Z,5.90
2018-08-22T10:06:38.182Z,4.93
2018-08-22T10:09:21.687Z,5.70
2018-08-22T10:11:55.533Z,6.10
2018-08-22T10:14:28.465Z,6.63
2018-08-22T10:16:59.632Z,6.93
2018-08-22T10:19:34.516Z,7.17
2018-08-22T10:22:10.723Z,6.40
2018-08-22T10:24:42.760Z,6.70
2018-08-22T10:27:15.952Z,6.17
2018-08-22T10:29:47.213Z,5.60
2018-08-22T10:32:25.248Z,6.03
2018-08-22T10:35:09.448Z,5.50
2018-08-22T10:37:43.300Z,6.57
2018-08-22T10:40:17.540Z,6.97
2018-08-22T10:42:48.834Z,6.93
2018-08-22T10:45:21.698Z,6.90
2018-08-22T10:47:52.805Z,7.50
2018-08-22T10:50:26.148Z,7.73
2018-08-22T10:52:56.581Z,6.80
2018-08-22T10:55:29.186Z,7.30
2018-08-22T10:57:59.367Z,6.93
2018-08-22T11:00:30.407Z,7.13
2018-08-22T11:03:05.853Z,8.30
2018-08-22T11:05:36.784Z,7.10
2018-08-22T11:08:10.553Z,7.40
2018-08-22T11:10:42.640Z,7.90
2018-08-22T11:13:14.880Z,6.90
2018-08-22T11:15:48.688Z,7.47
2018-08-22T11:18:20.087Z,7.23
2018-08-22T11:20:52.651Z,7.63
2018-08-22T11:23:34.061Z,6.90
2018-08-22T11:26:17.416Z,7.53
2018-08-22T11:28:58.775Z,6.77
2018-08-22T11:31:39.435Z,6.63
2018-08-22T11:34:21.996Z,6.10
2018-08-22T11:36:59.300Z,7.17
2018-08-22T11:39:30.142Z,6.90
2018-08-22T11:42:02.364Z,8.00
2018-08-22T11:44:37.417Z,7.53
2018-08-22T11:47:09.194Z,7.57
2018-08-22T11:49:40.698Z,7.10
2018-08-22T11:52:12.778Z,6.80
2018-08-22T11:54:44.068Z,6.57
2018-08-22T11:57:16.275Z,8.83
2018-08-22T11:59:48.187Z,7.93
2018-08-22T12:02:19.834Z,8.80
2018-08-22T12:04:49.928Z,8.50
2018-08-22T12:07:21.192Z,8.33
2018-08-22T12:09:52.734Z,8.57
2018-08-22T12:12:25.635Z,7.73
2018-08-22T12:14:57.435Z,8.73
2018-08-22T12:17:27.735Z,9.10
2018-08-22T12:19:57.867Z,8.43
2018-08-22T12:22:28.118Z,8.63
2018-08-22T12:24:58.407Z,8.87
2018-08-22T12:27:28.971Z,7.70
2018-08-22T12:30:08.144Z,8.47
2018-08-22T12:32:39.107Z,8.07
2018-08-22T12:35:10.860Z,8.27
2018-08-22T12:37:42.709Z,7.93
2018-08-22T12:40:15.347Z,8.60
2018-08-22T12:42:46.782Z,9.43
2018-08-22T12:45:18.730Z,10.13
2018-08-22T12:47:49.862Z,8.77
2018-08-22T12:50:23.585Z,7.60
2018-08-22T12:52:54.798Z,8.00
2018-08-22T12:55:34.736Z,9.13
2018-08-22T12:58:11.576Z,8.40
2018-08-22T13:00:43.285Z,8.97
2018-08-22T13:03:18.295Z,9.47
2018-08-22T13:05:51.052Z,9.90
2018-08-22T13:08:21.347Z,8.50
2018-08-22T13:10:55.545Z,10.50
2018-08-22T13:13:27.642Z,9.63
2018-08-22T13:15:58.156Z,8.70
2018-08-22T13:18:30.006Z,7.20
2018-08-22T13:21:01.232Z,8.57
2018-08-22T13:23:33.572Z,9.47
2018-08-22T13:26:05.289Z,7.97
2018-08-22T13:28:41.351Z,7.83
2018-08-22T13:31:13.488Z,8.50
2018-08-22T13:33:46.784Z,7.10
2018-08-22T13:36:18.283Z,7.70
2018-08-22T13:38:49.194Z,7.73
2018-08-22T13:41:20.167Z,8.03
2018-08-22T13:45:12.197Z,7.60
2018-08-22T13:47:43.564Z,7.37
2018-08-22T13:50:15.756Z,6.53
2018-08-22T13:52:46.214Z,6.67
2018-08-22T13:55:17.808Z,7.10
2018-08-22T13:57:50.827Z,8.00
2018-08-22T14:00:23.352Z,8.90
2018-08-22T14:02:57.340Z,8.43
2018-08-22T14:05:27.640Z,8.47
2018-08-22T14:07:59.938Z,8.53
2018-08-22T14:10:31.999Z,10.97
2018-08-22T14:13:08.089Z,8.83
2018-08-22T14:15:39.870Z,9.00
2018-08-22T14:18:10.156Z,9.47
2018-08-22T14:20:41.908Z,9.87
2018-08-22T14:23:16.275Z,11.13
2018-08-22T14:25:47.068Z,9.43
2018-08-22T14:28:20.859Z,9.80
2018-08-22T14:30:54.757Z,10.67
2018-08-22T14:33:28.677Z,9.47
2018-08-22T14:36:00.306Z,9.97
2018-08-22T14:38:31.945Z,10.63
2018-08-22T14:41:05.335Z,11.50
2018-08-22T14:43:37.384Z,10.50
2018-08-22T14:46:13.830Z,10.80
2018-08-22T14:48:47.339Z,10.80
2018-08-22T14:51:19.509Z,10.13
2018-08-22T14:53:50.970Z,9.73
2018-08-22T14:56:22.958Z,12.23
2018-08-22T14:58:54.740Z,12.23
2018-08-22T15:01:26.190Z,10.97
2018-08-22T15:04:00.359Z,11.80
2018-08-22T15:06:34.759Z,12.53
2018-08-22T15:09:20.026Z,11.43
2018-08-22T15:11:52.347Z,13.30
2018-08-22T15:14:26.441Z,14.47
2018-08-22T15:17:02.515Z,14.07
2018-08-22T15:19:35.065Z,15.47
2018-08-22T15:22:08.231Z,14.50
2018-08-22T15:24:40.075Z,14.43
2018-08-22T15:27:14.917Z,15.53
2018-08-22T15:29:46.768Z,14.67
2018-08-22T15:32:20.650Z,12.80
2018-08-22T15:34:58.009Z,15.83
2018-08-22T15:37:29.038Z,15.23
2018-08-22T15:40:01.109Z,15.20
2018-08-22T15:42:34.010Z,14.17
2018-08-22T15:45:09.704Z,13.40
2018-08-22T15:47:40.792Z,12.93
2018-08-22T15:50:13.571Z,13.87
2018-08-22T15:52:45.809Z,13.70
2018-08-22T15:55:19.580Z,14.87
2018-08-22T15:57:59.909Z,15.20
2018-08-22T16:00:38.661Z,15.97
2018-08-22T16:03:11.016Z,17.53
2018-08-22T16:05:44.823Z,16.53
2018-08-22T16:08:18.218Z,19.20
2018-08-22T16:10:52.105Z,16.53
2018-08-22T16:13:38.393Z,15.73
2018-08-22T16:16:14.041Z,17.23
2018-08-22T16:18:47.740Z,19.80
2018-08-22T16:21:19.256Z,18.20
2018-08-22T16:23:49.667Z,17.27
2018-08-22T16:26:23.350Z,18.27
2018-08-22T16:29:06.010Z,17.80
2018-08-22T16:31:41.147Z,17.73
2018-08-22T16:34:16.411Z,18.00
2018-08-22T16:36:47.736Z,19.63
2018-08-22T16:39:31.644Z,17.40
2018-08-22T16:42:04.812Z,17.43
2018-08-22T16:44:35.800Z,17.77
2018-08-22T16:47:08.075Z,18.87
2018-08-22T16:49:39.864Z,19.77
2018-08-22T16:52:13.201Z,18.40
2018-08-22T16:54:46.349Z,20.50
2018-08-22T16:57:17.105Z,17.70
2018-08-22T16:59:47.227Z,21.33
2018-08-22T17:02:28.404Z,20.10
2018-08-22T17:05:00.712Z,21.17
2018-08-22T17:07:32.809Z,19.43
2018-08-22T17:10:06.557Z,20.03
2018-08-22T17:12:54.322Z,19.30
2018-08-22T17:15:30.104Z,20.27
2018-08-22T17:18:03.581Z,19.57
2018-08-22T17:20:37.802Z,19.67
2018-08-22T17:23:09.841Z,22.13
2018-08-22T17:25:45.817Z,20.70
2018-08-22T17:28:20.986Z,22.43
2018-08-22T17:30:53.392Z,21.00
2018-08-22T17:33:31.208Z,20.67
2018-08-22T17:36:04.017Z,20.07
2018-08-22T17:38:35.674Z,20.97
2018-08-22T17:41:07.181Z,18.93
2018-08-22T17:43:55.456Z,18.43
2018-08-22T17:46:30.708Z,18.30
2018-08-22T17:49:04.211Z,18.13
2018-08-22T17:51:43.739Z,16.73
2018-08-22T17:54:19.184Z,15.87
2018-08-22T17:56:52.239Z,18.20
2018-08-22T17:59:24.332Z,16.57
2018-08-22T18:01:55.210Z,16.90
2018-08-22T18:04:26.695Z,16.97
2018-08-22T18:07:03.625Z,15.80
2018-08-22T18:09:36.682Z,15.80
2018-08-22T18:12:07.340Z,17.07
2018-08-22T18:14:39.471Z,15.67
2018-08-22T18:17:10.326Z,14.97
2018-08-22T18:19:41.730Z,15.80
2018-08-22T18:22:13.142Z,14.40
2018-08-22T18:25:05.309Z,15.20
2018-08-22T18:27:39.095Z,14.13
2018-08-22T18:30:19.294Z,14.10
2018-08-22T18:32:52.155Z,14.07
2018-08-22T18:35:24.516Z,14.00
2018-08-22T18:37:55.476Z,14.13
2018-08-22T18:40:29.482Z,13.90
2018-08-22T18:43:07.459Z,14.13
2018-08-22T18:45:48.181Z,14.00
2018-08-22T18:48:19.177Z,13.50
2018-08-22T18:51:03.278Z,13.60
2018-08-22T18:53:36.981Z,13.13
2018-08-22T18:56:21.747Z,13.07
2018-08-22T18:58:54.243Z,11.43
2018-08-22T19:01:26.204Z,12.03
2018-08-22T19:03:58.848Z,12.73
2018-08-22T19:06:31.202Z,10.37
2018-08-22T19:09:05.260Z,11.13
2018-08-22T19:11:37.737Z,10.40
2018-08-22T19:14:09.886Z,9.70
2018-08-22T19:16:43.095Z,9.47
2018-08-22T19:19:16.726Z,9.47
2018-08-22T19:24:32.643Z,10.07
2018-08-22T19:27:06.910Z,8.80
2018-08-22T19:29:37.984Z,9.27
2018-08-22T19:32:09.838Z,9.50
2018-08-22T19:34:43.235Z,9.03
2018-08-22T19:37:14.541Z,9.23
2018-08-22T19:39:54.252Z,9.10
2018-08-22T19:42:28.094Z,8.90
2018-08-22T19:44:59.373Z,9.20
2018-08-22T19:47:39.080Z,9.90
2018-08-22T19:50:13.265Z,9.23
2018-08-22T19:52:52.937Z,10.30
2018-08-22T19:55:28.941Z,9.77
2018-08-22T19:58:07.319Z,9.60
2018-08-22T20:00:43.053Z,10.30
2018-08-22T20:03:18.660Z,10.20
2018-08-22T20:05:57.278Z,11.07
2018-08-22T20:08:37.750Z,10.67
2018-08-22T20:11:13.221Z,11.53
2018-08-22T20:13:56.837Z,10.87
2018-08-22T20:16:37.742Z,9.97
2018-08-22T20:19:10.628Z,11.17
2018-08-22T20:21:43.375Z,12.10
2018-08-22T20:24:16.261Z,11.10
2018-08-22T20:26:54.710Z,11.33
2018-08-22T20:29:26.521Z,10.30
2018-08-22T20:31:58.459Z,10.70
2018-08-22T20:34:31.921Z,10.80
2018-08-22T20:37:10.303Z,11.37
2018-08-22T20:39:53.081Z,10.53
2018-08-22T20:42:28.820Z,10.80
2018-08-22T20:45:02.415Z,11.30
2018-08-22T20:47:34.038Z,11.13
2018-08-22T20:50:08.208Z,10.80
2018-08-22T20:52:40.713Z,10.53
2018-08-22T20:55:18.329Z,10.27
2018-08-22T20:57:49.670Z,11.23
2018-08-22T21:00:22.581Z,11.13
2018-08-22T21:02:54.457Z,10.13
2018-08-22T21:05:25.718Z,10.53
2018-08-22T21:08:04.577Z,11.50
2018-08-22T21:10:35.913Z,10.93
2018-08-22T21:13:22.728Z,11.27
2018-08-22T21:15:53.693Z,11.03
2018-08-22T21:18:25.575Z,10.83
2018-08-22T21:20:58.356Z,11.87
2018-08-22T21:23:31.805Z,10.83
2018-08-22T21:26:03.807Z,11.43
2018-08-22T21:28:39.689Z,11.93
2018-08-22T21:31:10.202Z,11.37
2018-08-22T21:33:40.624Z,11.20
2018-08-22T21:36:15.181Z,11.17
2018-08-22T21:38:49.219Z,11.17
2018-08-22T21:41:20.507Z,10.93
2018-08-22T21:43:52.479Z,10.90
2018-08-22T21:46:27.026Z,11.53
2018-08-22T21:49:03.452Z,10.67
2018-08-22T21:51:39.177Z,10.97
2018-08-22T21:54:13.826Z,11.87
2018-08-22T21:56:48.083Z,11.03
2018-08-22T21:59:22.226Z,11.50
2018-08-22T22:01:58.295Z,11.90
2018-08-22T22:04:33.924Z,10.53
2018-08-22T22:07:06.174Z,11.17
2018-08-22T22:09:39.363Z,10.90
2018-08-22T22:12:17.026Z,11.80
2018-08-22T22:14:47.485Z,11.30
2018-08-22T22:17:20.463Z,11.20
2018-08-22T22:19:53.078Z,10.37
2018-08-22T22:22:24.373Z,11.07
2018-08-22T22:25:00.587Z,11.13
2018-08-22T22:27:32.839Z,10.60
2018-08-22T22:30:06.441Z,10.93
2018-08-22T22:32:36.749Z,10.37
2018-08-22T22:35:08.848Z,11.20
2018-08-22T22:37:40.505Z,11.07
2018-08-22T22:40:11.029Z,12.27
2018-08-22T22:42:42.217Z,10.80
2018-08-22T22:45:13.093Z,10.90
2018-08-22T22:47:44.704Z,11.17
2018-08-22T22:50:14.858Z,11.03
2018-08-22T22:52:46.091Z,10.57
2018-08-22T22:55:17.075Z,11.10
2018-08-22T22:57:47.040Z,11.30
2018-08-22T23:00:19.379Z,11.57
2018-08-22T23:02:56.639Z,10.00
2018-08-22T23:05:31.209Z,10.73
2018-08-22T23:08:04.721Z,10.90
2018-08-22T23:10:35.210Z,11.53
2018-08-22T23:13:05.812Z,10.87
2018-08-22T23:15:36.457Z,11.30
2018-08-22T23:18:09.122Z,11.80
2018-08-22T23:20:42.407Z,11.90
2018-08-22T23:23:42.796Z,11.60
2018-08-22T23:26:19.999Z,10.83
2018-08-22T23:28:49.898Z,12.33
2018-08-22T23:31:21.043Z,12.80
2018-08-22T23:33:51.839Z,11.13
2018-08-22T23:36:23.411Z,11.60
2018-08-22T23:38:53.693Z,11.33
2018-08-22T23:41:23.798Z,11.67
2018-08-22T23:43:53.852Z,11.20
2018-08-22T23:46:24.046Z,10.97
2018-08-22T23:48:57.437Z,10.50
2018-08-22T23:51:27.820Z,11.50
2018-08-22T23:54:00.848Z,11.10
2018-08-22T23:56:32.265Z,11.77
2018-08-22T23:59:02.523Z,11.73
